Albion, CA

2:15 AM PDT on October 25, 2014 (GMT -0700)
Comptche-Ukiah Rd | Change Station
CLOSE
Current Station
Personal Weather Station
Location: Mendocino, CA
Elevation: 500 ft
Nearby Weather Stations
Active Advisory: Wind Advisory

Elev 500 ft 39.27 °N, 123.70 °W | Updated 6 seconds ago

Overcast
Overcast
57.7 °F
Feels Like 57.7 °F
N
5.0
Wind Variable Wind from ESE
Gusts 9.0 mph

Today
High -- | Low -- °F
--% Chance of Precip.
Yesterday
High -- | Low -- °F
Precip. -- in
7:35 AM 6:22 PM
New Moon, 2% visible
Pressure 29.81 in
Visibility 4.0 miles
Clouds Few 1200 ft
Mostly Cloudy 2000 ft
Overcast 2600 ft
Dew Point 57 °F
Humidity 98%
Rainfall 0.17 in
Snow Depth Not available.
UV 0 out of 12
Pollen 1.40 out of 12
Air Quality Not available.
Flu Activity Sporadic
METAR KUKI 250856Z AUTO 14011G16KT 4SM -RA BR FEW012 BKN020 OVC026 15/13 A2982 RMK AO2 RAB06 SLP092 P0000 60000 T01500133 58009

More Conditions Fewer Conditions

Pressure 29.81 in
Visibility 4.0 miles
Clouds Few 1200 ft
Mostly Cloudy 2000 ft
Overcast 2600 ft
Dew Point 57 °F
Humidity 98%
Rainfall 0.17 in
Snow Depth Not available.
UV 0 out of 12
Pollen 1.40 out of 12
Air Quality Not available.
Flu Activity Sporadic
METAR KUKI 250856Z AUTO 14011G16KT 4SM -RA BR FEW012 BKN020 OVC026 15/13 A2982 RMK AO2 RAB06 SLP092 P0000 60000 T01500133 58009

More Conditions Fewer Conditions

10-Day Weather Forecast

Almanac

Astronomy

Oct. 25, 2014 Rise Set
Actual Time 7:35 AM PDT 6:22 PM PDT
Civil Twilight 7:07 AM PDT 6:49 PM PDT
Nautical Twilight 6:36 AM PDT 7:20 PM PDT
Astronomical Twilight 6:05 AM PDT 7:51 PM PDT
Moon 9:18 AM PDT 7:50 PM PDT
Length of Visible Light 11h 41m
Length of Day
10h 47m
Tomorrow will be 2m 22s shorter.
New Moon, 2% of the Moon is Illuminated
Today
New Moon
Oct 30
First Quarter
Nov 6
Full
Nov 14
Last Quarter
Nov 22
New

Today's Extremes

State Highs State Lows

Community

WunderPhotos

Upload Photos

1,764,796 photos uploaded!

Nearby

Snow Depth

Station Depth Elevation
CSS Lab 0 in 6900 ft
Independence Camp 0 in 7000 ft
Squaw Valley 0 in 8200 ft
Truckee #2 0 in 6400 ft
Tahoe City Cross 1 in 6750 ft

Earthquake Activity

City Distance Mag. Time & Date
No recent earthquake activity has been reported nearby.
Minimum magnitude displayed is 2.5.

Coastal Water Temperatures

Place Temperature
Arena Cove, CA 61.0 °F
North Spit, CA 57.9 °F
Point Reyes, CA 61.0 °F
San Francisco, CA 63.0 °F
Richmond, CA 64.0 °F

Nearby Weather Stations